| time (UTC) | temp F | wind direction | speed MPH | gust MPH | rain 1hr in | rain 24hr in | rain mn in | humidity % | barometer mb |
| 20260503213822 | 58 | 180 | 2.0 | 9.0 | 0.00 | 0.00 | 0.00 | 39 | 1014.1 |
| 20260503213346 | 58 | 169 | 2.0 | 7.0 | 0.00 | 0.00 | 0.00 | 41 | 1014.1 |
| 20260503212851 | 59 | 193 | 2.0 | 10.0 | 0.00 | 0.00 | 0.00 | 41 | 1014.1 |
| 20260503212335 | 59 | 155 | 2.0 | 10.0 | 0.00 | 0.00 | 0.00 | 40 | 1014.1 |
| 20260503211839 | 59 | 109 | 2.0 | 7.0 | 0.00 | 0.00 | 0.00 | 40 | 1014.1 |
| 20260503211322 | 59 | 84 | 1.0 | 6.0 | 0.00 | 0.00 | 0.00 | 43 | 1014.5 |
| 20260503210831 | 59 | 165 | 2.0 | 10.0 | 0.00 | 0.00 | 0.00 | 40 | 1014.5 |
| 20260503210320 | 59 | 163 | 2.0 | 10.0 | 0.00 | 0.00 | 0.00 | 40 | 1014.5 |
| 20260503205822 | 59 | 169 | 1.0 | 7.0 | 0.00 | 0.00 | 0.00 | 44 | 1014.5 |
| 20260503205347 | 59 | 227 | 2.0 | 6.0 | 0.00 | 0.00 | 0.00 | 40 | 1014.5 |
| 20260503204830 | 59 | 175 | 2.0 | 10.0 | 0.00 | 0.00 | 0.00 | 40 | 1014.5 |
| 20260503204336 | 59 | 167 | 2.0 | 10.0 | 0.00 | 0.00 | 0.00 | 38 | 1014.5 |
| 20260503203822 | 59 | 163 | 2.0 | 9.0 | 0.00 | 0.00 | 0.00 | 41 | 1014.5 |
| 20260503203327 | 60 | 194 | 3.0 | 11.0 | 0.00 | 0.00 | 0.00 | 41 | 1014.5 |
| 20260503202829 | 59 | 289 | 2.0 | 11.0 | 0.00 | 0.00 | 0.00 | 39 | 1014.7 |
| 20260503202335 | 59 | 84 | 3.0 | 10.0 | 0.00 | 0.00 | 0.00 | 38 | 1014.7 |
| 20260503201818 | 59 | 102 | 2.0 | 10.0 | 0.00 | 0.00 | 0.00 | 38 | 1014.7 |
| 20260503201322 | 59 | 180 | 4.0 | 10.0 | 0.00 | 0.00 | 0.00 | 38 | 1014.6 |
| 20260503200835 | 60 | 167 | 4.0 | 10.0 | 0.00 | 0.00 | 0.00 | 38 | 1014.6 |
| 20260503200340 | 60 | 164 | 2.0 | 8.0 | 0.00 | 0.00 | 0.00 | 39 | 1014.6 |
| 20260503195839 | 59 | 128 | 3.0 | 11.0 | 0.00 | 0.00 | 0.00 | 44 | 1015.1 |
| 20260503195325 | 58 | 165 | 4.0 | 11.0 | 0.00 | 0.00 | 0.00 | 41 | 1015.1 |
| 20260503194834 | 58 | 169 | 3.0 | 10.0 | 0.00 | 0.00 | 0.00 | 40 | 1015.1 |
| 20260503194337 | 59 | 146 | 3.0 | 12.0 | 0.00 | 0.00 | 0.00 | 44 | 1015.3 |
| 20260503193821 | 58 | 132 | 4.0 | 12.0 | 0.00 | 0.00 | 0.00 | 42 | 1015.3 |
| 20260503193325 | 59 | 176 | 2.0 | 7.0 | 0.00 | 0.00 | 0.00 | 40 | 1015.3 |
| 20260503192850 | 59 | 236 | 2.0 | 7.0 | 0.00 | 0.00 | 0.00 | 43 | 1015.6 |
| 20260503192336 | 59 | 152 | 2.0 | 7.0 | 0.00 | 0.00 | 0.00 | 39 | 1015.6 |
| 20260503191818 | 59 | 157 | 2.0 | 8.0 | 0.00 | 0.00 | 0.00 | 41 | 1015.6 |
| 20260503191340 | 59 | 62 | 2.0 | 9.0 | 0.00 | 0.00 | 0.00 | 45 | 1015.9 |
| 20260503190828 | 58 | 97 | 4.0 | 10.0 | 0.00 | 0.00 | 0.00 | 40 | 1015.9 |
| 20260503190316 | 59 | 83 | 1.0 | 10.0 | 0.00 | 0.00 | 0.00 | 42 | 1015.9 |
| 20260503185825 | 58 | 215 | 3.0 | 9.0 | 0.00 | 0.00 | 0.00 | 44 | 1016.1 |
| 20260503185330 | 58 | 128 | 2.0 | 9.0 | 0.00 | 0.00 | 0.00 | 47 | 1016.1 |
| 20260503184835 | 58 | 129 | 2.0 | 9.0 | 0.00 | 0.00 | 0.00 | 41 | 1016.1 |
| 20260503184316 | 58 | 140 | 2.0 | 9.0 | 0.00 | 0.00 | 0.00 | 42 | 1016.2 |
| 20260503183825 | 57 | 162 | 2.0 | 9.0 | 0.00 | 0.00 | 0.00 | 42 | 1016.2 |
| 20260503183332 | 57 | 138 | 3.0 | 8.0 | 0.00 | 0.00 | 0.00 | 41 | 1016.2 |
| 20260503182818 | 57 | 222 | 1.0 | 14.0 | 0.00 | 0.00 | 0.00 | 45 | 1016.3 |
| 20260503182324 | 57 | 150 | 4.0 | 14.0 | 0.00 | 0.00 | 0.00 | 41 | 1016.3 |
| 20260503181844 | 57 | 278 | 2.0 | 14.0 | 0.00 | 0.00 | 0.00 | 45 | 1016.3 |
| 20260503181327 | 57 | 203 | 4.0 | 14.0 | 0.00 | 0.00 | 0.00 | 43 | 1016.6 |
| 20260503180833 | 57 | 117 | 2.0 | 9.0 | 0.00 | 0.00 | 0.00 | 44 | 1016.6 |
| 20260503180322 | 57 | 147 | 2.0 | 9.0 | 0.00 | 0.00 | 0.00 | 48 | 1016.6 |
| 20260503175825 | 58 | 205 | 1.0 | 8.0 | 0.00 | 0.00 | 0.00 | 44 | 1016.7 |
| 20260503175350 | 58 | 67 | 2.0 | 8.0 | 0.00 | 0.00 | 0.00 | 41 | 1016.7 |
| 20260503174813 | 58 | 99 | 2.0 | 7.0 | 0.00 | 0.00 | 0.00 | 41 | 1016.7 |
| 20260503174320 | 58 | 153 | 1.0 | 6.0 | 0.00 | 0.00 | 0.00 | 48 | 1016.9 |
| 20260503173845 | 58 | 176 | 3.0 | 8.0 | 0.00 | 0.00 | 0.00 | 41 | 1016.9 |
| 20260503173349 | 58 | 90 | 1.0 | 8.0 | 0.00 | 0.00 | 0.00 | 46 | 1016.9 |
| 20260503172829 | 57 | 227 | 3.0 | 7.0 | 0.00 | 0.00 | 0.00 | 44 | 1017.2 |
| 20260503172336 | 57 | 231 | 1.0 | 10.0 | 0.00 | 0.00 | 0.00 | 45 | 1017.2 |
| 20260503171820 | 57 | 84 | 2.0 | 10.0 | 0.00 | 0.00 | 0.00 | 46 | 1017.2 |
| 20260503171322 | 56 | 106 | 2.0 | 6.0 | 0.00 | 0.00 | 0.00 | 49 | 1017.2 |
| 20260503170831 | 56 | 126 | 1.0 | 8.0 | 0.00 | 0.00 | 0.00 | 46 | 1017.2 |
| 20260503170318 | 56 | 128 | 1.0 | 8.0 | 0.00 | 0.00 | 0.00 | 47 | 1017.2 |
| 20260503150833 | 51 | 113 | 2.0 | 8.0 | 0.00 | 0.00 | 0.00 | 55 | 1018.2 |
| 20260503150336 | 51 | 168 | 3.0 | 7.0 | 0.00 | 0.00 | 0.00 | 55 | 1018.2 |
| 20260503131345 | 44 | 113 | 0.0 | 6.0 | 0.00 | 0.00 | 0.00 | 67 | 1018.5 |
| 20260503130849 | 43 | 179 | 2.0 | 6.0 | 0.00 | 0.00 | 0.00 | 68 | 1018.5 |
| 20260503130318 | 43 | 152 | 1.0 | 5.0 | 0.00 | 0.00 | 0.00 | 70 | 1018.5 |
| 20260503110350 | 34 | 51 | 0.0 | 0.0 | 0.00 | 0.00 | 0.00 | 95 | 1017.7 |
| 20260503090335 | 32 | 49 | 0.0 | 0.0 | 0.00 | 0.00 | 0.00 | 94 | 1017.1 |
| 20260503081325 | 33 | 49 | 0.0 | 0.0 | 0.00 | 0.00 | 0.00 | 94 | 1017.1 |
| 20260503080850 | 33 | 49 | 0.0 | 0.0 | 0.00 | 0.00 | 0.00 | 93 | 1017.1 |
| 20260503080355 | 33 | 49 | 0.0 | 0.0 | 0.00 | 0.00 | 0.00 | 93 | 1017.1 |
| 20260503072825 | 34 | 49 | 0.0 | 0.0 | 0.00 | 0.00 | 0.00 | 93 | 1017.0 |
| 20260503072350 | 34 | 49 | 0.0 | 0.0 | 0.00 | 0.00 | 0.00 | 92 | 1017.0 |
| 20260503071834 | 34 | 49 | 0.0 | 0.0 | 0.00 | 0.00 | 0.00 | 92 | 1017.0 |
| 20260503071322 | 34 | 49 | 0.0 | 0.0 | 0.00 | 0.00 | 0.00 | 92 | 1016.9 |
| 20260503070823 | 34 | 49 | 0.0 | 0.0 | 0.00 | 0.00 | 0.00 | 93 | 1016.9 |
| 20260503070329 | 34 | 49 | 0.0 | 0.0 | 0.00 | 0.00 | 0.00 | 93 | 1016.9 |
| 20260503060326 | 35 | 49 | 0.0 | 0.0 | 0.00 | 0.00 | 0.00 | 93 | 1017.2 |
| 20260503054823 | 35 | 49 | 0.0 | 0.0 | 0.00 | 0.00 | 0.00 | 93 | 1017.3 |
| 20260503054325 | 35 | 49 | 0.0 | 0.0 | 0.00 | 0.00 | 0.00 | 94 | 1017.3 |
| 20260503053836 | 35 | 49 | 0.0 | 0.0 | 0.00 | 0.00 | 0.00 | 95 | 1017.3 |
| 20260503053318 | 35 | 49 | 0.0 | 0.0 | 0.00 | 0.00 | 0.00 | 95 | 1017.3 |
| 20260503052821 | 35 | 49 | 0.0 | 0.0 | 0.00 | 0.00 | 0.00 | 95 | 1017.2 |
| 20260503052346 | 35 | 49 | 0.0 | 0.0 | 0.00 | 0.00 | 0.00 | 95 | 1017.2 |
| 20260503051815 | 35 | 49 | 0.0 | 0.0 | 0.00 | 0.00 | 0.00 | 94 | 1017.2 |
| 20260503051340 | 35 | 49 | 0.0 | 0.0 | 0.00 | 0.00 | 0.00 | 94 | 1017.2 |
| 20260503050830 | 35 | 49 | 0.0 | 0.0 | 0.00 | 0.00 | 0.00 | 94 | 1017.2 |
| 20260503050316 | 35 | 49 | 0.0 | 0.0 | 0.00 | 0.00 | 0.00 | 94 | 1017.2 |
| 20260503045819 | 35 | 49 | 0.0 | 0.0 | 0.00 | 0.00 | 0.00 | 94 | 1017.2 |
| 20260503045325 | 35 | 49 | 0.0 | 0.0 | 0.00 | 0.00 | 0.00 | 94 | 1017.2 |
| 20260503044833 | 35 | 49 | 0.0 | 0.0 | 0.00 | 0.00 | 0.00 | 93 | 1017.2 |
| 20260503044334 | 35 | 49 | 0.0 | 0.0 | 0.00 | 0.00 | 0.00 | 92 | 1017.2 |
| 20260503043820 | 36 | 49 | 0.0 | 0.0 | 0.00 | 0.00 | 0.00 | 92 | 1017.2 |
| 20260503043325 | 36 | 49 | 0.0 | 0.0 | 0.00 | 0.00 | 0.00 | 92 | 1017.2 |
| 20260503042830 | 36 | 49 | 0.0 | 0.0 | 0.00 | 0.00 | 0.00 | 90 | 1017.2 |
| 20260503042357 | 36 | 49 | 0.0 | 0.0 | 0.00 | 0.00 | 0.00 | 91 | 1017.2 |
| 20260503041825 | 36 | 49 | 0.0 | 0.0 | 0.00 | 0.00 | 0.00 | 89 | 1017.2 |
| 20260503041330 | 36 | 49 | 0.0 | 0.0 | 0.00 | 0.00 | 0.00 | 89 | 1017.2 |
| 20260503040838 | 36 | 49 | 0.0 | 0.0 | 0.00 | 0.00 | 0.00 | 89 | 1017.2 |
| 20260503040324 | 36 | 49 | 0.0 | 0.0 | 0.00 | 0.00 | 0.00 | 89 | 1017.2 |
| 20260503035826 | 36 | 49 | 0.0 | 0.0 | 0.00 | 0.00 | 0.00 | 88 | 1017.3 |
| 20260503035332 | 37 | 49 | 0.0 | 0.0 | 0.00 | 0.00 | 0.00 | 86 | 1017.3 |
| 20260503034816 | 37 | 49 | 0.0 | 0.0 | 0.00 | 0.00 | 0.00 | 85 | 1017.3 |
| 20260503034320 | 37 | 49 | 0.0 | 0.0 | 0.00 | 0.00 | 0.00 | 86 | 1017.3 |
| 20260503033826 | 37 | 49 | 0.0 | 0.0 | 0.00 | 0.00 | 0.00 | 86 | 1017.3 |
| 20260503033351 | 37 | 49 | 0.0 | 0.0 | 0.00 | 0.00 | 0.00 | 85 | 1017.3 |
| 20260503032832 | 37 | 49 | 0.0 | 0.0 | 0.00 | 0.00 | 0.00 | 85 | 1017.6 |
| 20260503032323 | 38 | 49 | 0.0 | 0.0 | 0.00 | 0.00 | 0.00 | 85 | 1017.6 |
| 20260503031849 | 38 | 49 | 0.0 | 0.0 | 0.00 | 0.00 | 0.00 | 83 | 1017.6 |
| 20260503031332 | 38 | 49 | 0.0 | 0.0 | 0.00 | 0.00 | 0.00 | 82 | 1017.6 |
| 20260503030837 | 38 | 49 | 0.0 | 0.0 | 0.00 | 0.00 | 0.00 | 83 | 1017.6 |
| 20260503030322 | 38 | 49 | 0.0 | 0.0 | 0.00 | 0.00 | 0.00 | 84 | 1017.6 |
| 20260503025827 | 39 | 49 | 0.0 | 0.0 | 0.00 | 0.00 | 0.00 | 84 | 1017.6 |
| 20260503025352 | 39 | 49 | 0.0 | 0.0 | 0.00 | 0.00 | 0.00 | 83 | 1017.6 |
| 20260503024815 | 39 | 49 | 0.0 | 0.0 | 0.00 | 0.00 | 0.00 | 82 | 1017.6 |
| 20260503024325 | 39 | 49 | 0.0 | 0.0 | 0.00 | 0.00 | 0.00 | 80 | 1017.7 |
| 20260503023831 | 40 | 49 | 0.0 | 0.0 | 0.00 | 0.00 | 0.00 | 81 | 1017.7 |
| 20260503023319 | 40 | 49 | 0.0 | 0.0 | 0.00 | 0.00 | 0.00 | 80 | 1017.7 |
| 20260503022829 | 40 | 49 | 0.0 | 0.0 | 0.00 | 0.00 | 0.00 | 80 | 1017.5 |
| 20260503022318 | 40 | 49 | 0.0 | 0.0 | 0.00 | 0.00 | 0.00 | 79 | 1017.5 |
| 20260503021823 | 40 | 49 | 0.0 | 0.0 | 0.00 | 0.00 | 0.00 | 79 | 1017.5 |
| 20260503021326 | 40 | 49 | 0.0 | 0.0 | 0.00 | 0.00 | 0.00 | 79 | 1017.4 |
| 20260503020830 | 41 | 49 | 0.0 | 0.0 | 0.00 | 0.00 | 0.00 | 78 | 1017.4 |
| 20260503020318 | 41 | 49 | 0.0 | 0.0 | 0.00 | 0.00 | 0.00 | 78 | 1017.4 |
| 20260503015822 | 41 | 49 | 0.0 | 0.0 | 0.00 | 0.00 | 0.00 | 78 | 1017.3 |
| 20260503015328 | 41 | 49 | 0.0 | 0.0 | 0.00 | 0.00 | 0.00 | 78 | 1017.3 |
| 20260503014834 | 41 | 49 | 0.0 | 0.0 | 0.00 | 0.00 | 0.00 | 78 | 1017.3 |
| 20260503014338 | 41 | 49 | 0.0 | 0.0 | 0.00 | 0.00 | 0.00 | 78 | 1017.3 |
| 20260503013823 | 41 | 49 | 0.0 | 0.0 | 0.00 | 0.00 | 0.00 | 77 | 1017.3 |
| 20260503013333 | 41 | 49 | 0.0 | 0.0 | 0.00 | 0.00 | 0.00 | 76 | 1017.3 |
| 20260503012818 | 41 | 49 | 0.0 | 0.0 | 0.00 | 0.00 | 0.00 | 76 | 1017.2 |
| 20260503012347 | 42 | 49 | 0.0 | 0.0 | 0.00 | 0.00 | 0.00 | 77 | 1017.2 |
| 20260503011832 | 42 | 49 | 0.0 | 0.0 | 0.00 | 0.00 | 0.00 | 78 | 1017.2 |
| 20260503011354 | 42 | 49 | 0.0 | 0.0 | 0.00 | 0.00 | 0.00 | 78 | 1017.2 |
| 20260503010819 | 42 | 49 | 0.0 | 0.0 | 0.00 | 0.00 | 0.00 | 78 | 1017.2 |
| 20260503010330 | 42 | 49 | 0.0 | 0.0 | 0.00 | 0.00 | 0.00 | 77 | 1017.2 |
| 20260503005836 | 42 | 49 | 0.0 | 0.0 | 0.00 | 0.00 | 0.00 | 78 | 1017.2 |
| 20260503005341 | 42 | 49 | 0.0 | 0.0 | 0.00 | 0.00 | 0.00 | 77 | 1017.2 |
| 20260503004825 | 42 | 49 | 0.0 | 0.0 | 0.00 | 0.00 | 0.00 | 76 | 1017.2 |
| 20260503004327 | 43 | 49 | 0.0 | 0.0 | 0.00 | 0.00 | 0.00 | 73 | 1017.1 |
| 20260503003851 | 43 | 49 | 0.0 | 0.0 | 0.00 | 0.00 | 0.00 | 72 | 1017.1 |
| 20260503003320 | 43 | 49 | 0.0 | 0.0 | 0.00 | 0.00 | 0.00 | 72 | 1017.1 |
| 20260503002830 | 43 | 49 | 0.0 | 0.0 | 0.00 | 0.00 | 0.00 | 71 | 1017.0 |
| 20260503002335 | 43 | 49 | 0.0 | 0.0 | 0.00 | 0.00 | 0.00 | 70 | 1017.0 |
| 20260503001821 | 43 | 49 | 0.0 | 0.0 | 0.00 | 0.00 | 0.00 | 69 | 1017.0 |
| 20260503001328 | 43 | 49 | 0.0 | 0.0 | 0.00 | 0.00 | 0.00 | 69 | 1016.9 |
| 20260503000816 | 43 | 49 | 0.0 | 0.0 | 0.00 | 0.00 | 0.00 | 68 | 1016.9 |
| 20260503000325 | 43 | 49 | 0.0 | 0.0 | 0.00 | 0.00 | 0.00 | 66 | 1016.9 |
| 20260502235826 | 43 | 49 | 0.0 | 0.0 | 0.00 | 0.00 | 0.00 | 67 | 1016.8 |
| 20260502235332 | 43 | 49 | 0.0 | 0.0 | 0.00 | 0.00 | 0.00 | 65 | 1016.8 |
| 20260502234817 | 44 | 49 | 0.0 | 0.0 | 0.00 | 0.00 | 0.00 | 66 | 1016.8 |
| 20260502234321 | 44 | 49 | 0.0 | 3.0 | 0.00 | 0.00 | 0.00 | 65 | 1016.7 |
| 20260502233830 | 44 | 49 | 0.0 | 3.0 | 0.00 | 0.00 | 0.00 | 65 | 1016.7 |
| 20260502233319 | 44 | 19 | 0.0 | 0.0 | 0.00 | 0.00 | 0.00 | 66 | 1016.7 |
| 20260502232823 | 44 | 19 | 0.0 | 0.0 | 0.00 | 0.00 | 0.00 | 66 | 1016.7 |
| 20260502232328 | 44 | 19 | 0.0 | 0.0 | 0.00 | 0.00 | 0.00 | 65 | 1016.7 |
| 20260502231812 | 44 | 21 | 0.0 | 1.0 | 0.00 | 0.00 | 0.00 | 64 | 1016.7 |
| 20260502231319 | 44 | 21 | 0.0 | 5.0 | 0.00 | 0.00 | 0.00 | 65 | 1016.7 |
| 20260502230824 | 44 | 20 | 0.0 | 5.0 | 0.00 | 0.00 | 0.00 | 65 | 1016.7 |
| 20260502230332 | 44 | 41 | 0.0 | 4.0 | 0.00 | 0.00 | 0.00 | 65 | 1016.7 |
| 20260502225836 | 44 | 41 | 1.0 | 4.0 | 0.00 | 0.00 | 0.00 | 62 | 1016.7 |
| 20260502225318 | 44 | 41 | 0.0 | 1.0 | 0.00 | 0.00 | 0.00 | 66 | 1016.7 |
| 20260502224828 | 44 | 42 | 0.0 | 3.0 | 0.00 | 0.00 | 0.00 | 62 | 1016.7 |
| 20260502224331 | 44 | 42 | 0.0 | 3.0 | 0.00 | 0.00 | 0.00 | 62 | 1016.7 |
| 20260502223859 | 45 | 49 | 0.0 | 3.0 | 0.00 | 0.00 | 0.00 | 62 | 1016.7 |
| 20260502223323 | 45 | 30 | 0.0 | 0.0 | 0.00 | 0.00 | 0.00 | 64 | 1016.7 |
| 20260502222825 | 45 | 30 | 0.0 | 3.0 | 0.00 | 0.00 | 0.00 | 63 | 1016.7 |
| 20260502222336 | 45 | 30 | 0.0 | 3.0 | 0.00 | 0.00 | 0.00 | 65 | 1016.7 |
| 20260502221821 | 45 | 32 | 0.0 | 2.0 | 0.00 | 0.00 | 0.00 | 64 | 1016.7 |
| 20260502221323 | 45 | 32 | 0.0 | 4.0 | 0.00 | 0.00 | 0.00 | 63 | 1016.7 |
| 20260502220829 | 45 | 32 | 0.0 | 4.0 | 0.00 | 0.00 | 0.00 | 61 | 1016.7 |
| 20260502220334 | 45 | 31 | 0.0 | 4.0 | 0.00 | 0.00 | 0.00 | 62 | 1016.7 |
| 20260502215818 | 45 | 50 | 0.0 | 4.0 | 0.00 | 0.00 | 0.00 | 65 | 1016.7 |
| 20260502215327 | 46 | 49 | 1.0 | 5.0 | 0.00 | 0.00 | 0.00 | 63 | 1016.7 |
| 20260502214837 | 46 | 29 | 1.0 | 5.0 | 0.00 | 0.00 | 0.00 | 62 | 1016.7 |
| 20260502214321 | 45 | 88 | 0.0 | 6.0 | 0.00 | 0.00 | 0.00 | 67 | 1016.6 |